Time;durP1;ratioP1;P1;durP2;ratioP2;P2;SDS_P1;SDS_P2;PMS_P1;PMS_P2;Temp;Humidity;BMP_temperature;BMP_pressure;BME280_temperature;BME280_humidity;BME280_pressure;Samples;Min_cycle;Max_cycle;Signal;HPM_P1;HPM_P2
2021/12/09 00:01:07;;;;;;;10.48;4.85;;;;;;;-6.56;61.35;100395.94;5050721;28;20028;-50
2021/12/09 00:03:36;;;;;;;10.57;5.20;;;;;;;-6.57;61.32;100400.25;5050774;28;20120;-54
2021/12/09 00:06:04;;;;;;;14.52;5.82;;;;;;;-6.56;61.17;100396.78;5050962;28;20652;-52
2021/12/09 00:08:30;;;;;;;13.75;5.68;;;;;;;-6.66;61.25;100395.06;5050735;28;20036;-52
2021/12/09 00:11:00;;;;;;;11.48;5.82;;;;;;;-6.69;61.50;100395.94;5046391;28;20492;-53
2021/12/09 00:13:27;;;;;;;11.57;5.43;;;;;;;-6.97;61.35;100346.47;5049112;28;20525;-52
2021/12/09 00:15:53;;;;;;;10.35;5.53;;;;;;;-6.73;61.44;100385.53;5048892;28;20036;-55
2021/12/09 00:18:19;;;;;;;11.25;5.55;;;;;;;-6.71;61.44;100396.81;5048598;28;20031;-55
2021/12/09 00:20:45;;;;;;;12.63;5.55;;;;;;;-6.73;61.45;100388.16;5047405;28;20033;-54
2021/12/09 00:23:11;;;;;;;12.48;4.85;;;;;;;-6.73;61.71;100383.78;5049155;28;20120;-53
2021/12/09 00:25:37;;;;;;;11.88;5.50;;;;;;;-6.93;61.41;100355.16;5048744;28;20168;-51
2021/12/09 00:28:03;;;;;;;13.60;5.68;;;;;;;-6.67;61.57;100382.94;5048104;28;20037;-54
2021/12/09 00:30:30;;;;;;;12.00;5.60;;;;;;;-6.73;61.60;100378.56;5050212;28;20135;-55
2021/12/09 00:32:57;;;;;;;11.75;5.90;;;;;;;-6.64;61.44;100385.53;5050800;28;20033;-51
2021/12/09 00:35:29;;;;;;;11.85;6.15;;;;;;;-6.58;61.23;100388.13;5050481;28;20024;-53
2021/12/09 00:38:01;;;;;;;10.73;5.20;;;;;;;-6.52;61.54;100393.31;5050195;28;20467;-54
2021/12/09 00:40:27;;;;;;;11.60;5.60;;;;;;;-6.49;61.16;100389.84;5050811;28;20480;-54
2021/12/09 00:42:52;;;;;;;11.30;5.50;;;;;;;-6.54;61.30;100387.22;5050803;28;20036;-53
2021/12/09 00:45:18;;;;;;;12.95;6.25;;;;;;;-6.53;61.36;100385.50;5049201;28;20389;-52
2021/12/09 00:47:44;;;;;;;11.27;5.60;;;;;;;-6.81;61.01;100339.53;5050340;28;20120;-51
2021/12/09 00:50:10;;;;;;;12.38;5.47;;;;;;;-6.52;61.45;100388.09;5050649;28;20044;-56
2021/12/09 00:52:36;;;;;;;12.27;5.38;;;;;;;-6.45;61.35;100388.97;5050499;28;20029;-54
2021/12/09 00:55:05;;;;;;;10.95;4.93;;;;;;;-6.36;60.96;100385.47;5050338;28;20112;-52
2021/12/09 00:57:31;;;;;;;10.00;4.60;;;;;;;-6.36;61.20;100375.06;5049985;28;20029;-56
2021/12/09 00:59:58;;;;;;;14.07;5.90;;;;;;;-6.41;60.99;100384.63;5050529;28;20104;-56
2021/12/09 01:02:24;;;;;;;11.95;5.07;;;;;;;-6.38;61.18;100384.63;5052648;28;20032;-55
2021/12/09 01:04:51;;;;;;;10.27;5.10;;;;;;;-6.29;60.80;100374.16;5054043;28;20021;-55
2021/12/09 01:07:17;;;;;;;12.13;5.28;;;;;;;-6.41;60.75;100374.19;5053549;28;20036;-50
2021/12/09 01:09:43;;;;;;;12.18;5.47;;;;;;;-6.46;61.06;100400.25;5052563;28;20045;-55
2021/12/09 01:12:10;;;;;;;13.90;5.60;;;;;;;-6.43;61.19;100399.41;5054282;28;20378;-54
2021/12/09 01:14:37;;;;;;;9.63;5.47;;;;;;;-6.46;61.06;100392.44;5053834;28;20040;-53
2021/12/09 01:17:08;;;;;;;11.55;4.93;;;;;;;-6.46;61.13;100386.38;5053261;28;20547;-57
2021/12/09 01:19:35;;;;;;;15.15;5.43;;;;;;;-6.49;61.04;100382.03;5053746;28;20036;-56
2021/12/09 01:22:01;;;;;;;12.98;5.85;;;;;;;-6.34;60.76;100396.75;5053932;28;20029;-52
2021/12/09 01:24:26;;;;;;;13.52;4.97;;;;;;;-6.29;60.81;100404.59;5053282;28;20049;-54
2021/12/09 01:26:52;;;;;;;11.70;5.40;;;;;;;-6.25;60.67;100401.97;5053342;28;20055;-54
2021/12/09 01:29:27;;;;;;;11.98;5.00;;;;;;;-6.24;60.30;100408.91;5053611;28;20104;-55
2021/12/09 01:31:59;;;;;;;11.02;5.63;;;;;;;-6.24;60.44;100411.53;5052006;28;20123;-56
2021/12/09 01:34:25;;;;;;;10.20;5.32;;;;;;;-6.24;60.74;100413.25;5053297;28;20056;-52
2021/12/09 01:36:50;;;;;;;12.95;5.25;;;;;;;-6.32;60.50;100394.16;5053350;28;20473;-54
2021/12/09 01:39:18;;;;;;;10.63;5.40;;;;;;;-6.28;60.66;100401.94;5052286;28;20105;-54
2021/12/09 01:41:44;;;;;;;12.68;5.10;;;;;;;-6.21;60.75;100410.63;5052976;28;20432;-54
2021/12/09 01:44:09;;;;;;;12.32;5.40;;;;;;;-6.27;60.18;100403.72;5052843;28;20025;-55
2021/12/09 01:46:35;;;;;;;11.40;5.05;;;;;;;-6.26;60.54;100400.25;5053382;28;20063;-52
2021/12/09 01:49:01;;;;;;;10.00;4.78;;;;;;;-6.27;60.51;100408.03;5052848;28;20090;-55
2021/12/09 01:51:26;;;;;;;8.82;4.05;;;;;;;-6.19;60.99;100408.88;5052707;28;20066;-55
2021/12/09 01:53:52;;;;;;;11.50;5.20;;;;;;;-6.20;60.59;100408.03;5053656;28;20032;-54
2021/12/09 01:56:25;;;;;;;11.52;5.22;;;;;;;-6.17;60.42;100417.56;5052862;28;20049;-55
2021/12/09 01:58:57;;;;;;;9.52;4.75;;;;;;;-6.20;60.34;100413.25;5052756;28;20556;-56
2021/12/09 02:01:23;;;;;;;9.35;4.85;;;;;;;-6.23;60.25;100414.97;5052900;28;20045;-53
2021/12/09 02:03:50;;;;;;;10.70;5.07;;;;;;;-6.24;60.37;100410.66;5053105;28;20045;-54
2021/12/09 02:06:17;;;;;;;10.02;5.47;;;;;;;-6.34;60.50;100399.38;5052393;28;20033;-51
2021/12/09 02:08:43;;;;;;;12.15;5.47;;;;;;;-6.24;60.47;100413.25;5052930;28;20496;-50
2021/12/09 02:11:10;;;;;;;10.32;5.28;;;;;;;-6.26;60.45;100404.56;5052717;28;20079;-51
2021/12/09 02:13:35;;;;;;;13.82;5.40;;;;;;;-6.26;60.12;100400.25;5052133;28;20031;-48
2021/12/09 02:16:02;;;;;;;10.93;5.25;;;;;;;-6.24;60.25;100411.53;5052358;28;20117;-54
2021/12/09 02:18:29;;;;;;;11.35;4.82;;;;;;;-6.22;59.80;100416.72;5051619;28;20037;-50
2021/12/09 02:21:06;;;;;;;10.85;5.15;;;;;;;-6.23;60.23;100417.59;5052501;28;20021;-51
2021/12/09 02:23:32;;;;;;;11.32;5.05;;;;;;;-6.23;60.22;100428.91;5052329;28;20033;-50
2021/12/09 02:25:58;;;;;;;12.40;5.68;;;;;;;-6.25;59.78;100424.53;5052656;28;20056;-56
2021/12/09 02:28:26;;;;;;;11.82;5.10;;;;;;;-6.24;59.53;100423.69;5053084;28;20440;-56
2021/12/09 02:30:52;;;;;;;11.45;4.93;;;;;;;-6.27;60.16;100432.38;5052960;28;20045;-57
2021/12/09 02:33:17;;;;;;;14.00;5.55;;;;;;;-6.25;60.22;100434.97;5051955;28;20036;-55
2021/12/09 02:35:43;;;;;;;12.38;5.63;;;;;;;-6.23;59.59;100431.50;5052305;28;20060;-53
2021/12/09 02:38:09;;;;;;;14.25;6.35;;;;;;;-6.20;59.14;100444.53;5052323;28;20407;-52
2021/12/09 02:40:36;;;;;;;12.55;6.00;;;;;;;-6.21;59.56;100437.56;5051878;28;20384;-53
2021/12/09 02:43:04;;;;;;;13.93;5.43;;;;;;;-6.18;59.34;100428.88;5051650;28;20038;-56
2021/12/09 02:45:30;;;;;;;10.50;5.45;;;;;;;-6.21;59.53;100432.38;5052089;28;20040;-56
2021/12/09 02:47:56;;;;;;;12.68;5.82;;;;;;;-6.23;59.21;100434.13;5052012;28;20370;-52
2021/12/09 02:50:21;;;;;;;10.27;4.68;;;;;;;-6.28;59.92;100414.97;5050832;28;20029;-53
2021/12/09 02:52:48;;;;;;;10.60;5.35;;;;;;;-6.22;59.58;100437.56;5051460;28;20025;-52
2021/12/09 02:55:14;;;;;;;12.30;5.63;;;;;;;-6.31;59.62;100429.78;5051959;28;20385;-53
2021/12/09 02:57:40;;;;;;;13.80;5.97;;;;;;;-6.36;59.72;100435.88;5052068;28;20028;-54
2021/12/09 03:00:07;;;;;;;10.85;5.45;;;;;;;-6.28;59.82;100448.88;5051701;28;20397;-50
2021/12/09 03:02:34;;;;;;;11.90;5.57;;;;;;;-6.27;59.86;100447.13;5051174;28;20025;-52
2021/12/09 03:05:02;;;;;;;13.43;6.43;;;;;;;-6.27;59.85;100461.06;5051729;28;20037;-55
2021/12/09 03:07:34;;;;;;;15.13;6.40;;;;;;;-6.30;59.44;100458.41;5051809;28;20489;-55
2021/12/09 03:10:17;;;;;;;13.13;5.20;;;;;;;-6.33;59.75;100466.25;5051570;28;20036;-54
2021/12/09 03:12:43;;;;;;;16.38;5.90;;;;;;;-6.42;59.44;100463.66;5051069;28;20091;-53
2021/12/09 03:15:09;;;;;;;10.57;5.30;;;;;;;-6.44;60.19;100468.00;5051579;28;20029;-55
2021/12/09 03:17:37;;;;;;;13.98;5.60;;;;;;;-6.47;59.98;100473.22;5051549;28;20029;-54
2021/12/09 03:20:05;;;;;;;11.48;5.18;;;;;;;-6.46;60.23;100475.81;5050869;28;20029;-51
2021/12/09 03:22:31;;;;;;;13.75;5.32;;;;;;;-6.44;60.14;100468.00;5051071;28;20407;-54
2021/12/09 03:24:56;;;;;;;15.07;5.57;;;;;;;-6.32;59.90;100454.97;5049083;28;20135;-56
2021/12/09 03:27:22;;;;;;;12.70;5.53;;;;;;;-6.40;59.74;100475.81;5050931;28;20099;-54
2021/12/09 03:29:47;;;;;;;9.45;5.35;;;;;;;-6.39;59.73;100469.75;5051225;28;20048;-52
2021/12/09 03:32:16;;;;;;;13.27;6.00;;;;;;;-6.38;59.57;100475.81;5050610;28;20171;-54
2021/12/09 03:34:43;;;;;;;14.80;5.88;;;;;;;-6.47;60.31;100483.66;5051071;28;20531;-54
2021/12/09 03:37:27;;;;;;;13.13;6.03;;;;;;;-6.41;60.16;100481.03;5050752;28;20036;-53
2021/12/09 03:39:55;;;;;;;12.77;5.78;;;;;;;-6.38;59.73;100478.41;5050721;28;20132;-54
2021/12/09 03:42:25;;;;;;;14.63;5.53;;;;;;;-6.57;60.00;100435.88;5051269;28;20513;-53
2021/12/09 03:44:52;;;;;;;13.50;5.85;;;;;;;-6.26;60.29;100488.84;5050521;28;20033;-56
2021/12/09 03:47:20;;;;;;;13.82;6.40;;;;;;;-6.24;59.78;100487.09;5050824;28;20036;-56
2021/12/09 03:49:46;;;;;;;14.52;6.50;;;;;;;-6.17;59.40;100493.16;5051445;28;20112;-49
2021/12/09 03:52:13;;;;;;;14.25;5.90;;;;;;;-6.16;59.79;100488.84;5050652;28;20033;-51
2021/12/09 03:54:41;;;;;;;11.95;6.07;;;;;;;-6.27;60.00;100491.44;5050839;28;20025;-53
2021/12/09 03:57:07;;;;;;;14.20;6.25;;;;;;;-6.23;59.55;100499.28;5051231;28;20061;-52
2021/12/09 03:59:34;;;;;;;18.27;5.47;;;;;;;-6.09;59.12;100498.38;5050712;28;20469;-56
2021/12/09 04:01:59;;;;;;;13.40;5.90;;;;;;;-6.51;59.54;100457.59;5049379;28;20497;-55
2021/12/09 04:04:25;;;;;;;10.93;5.40;;;;;;;-6.29;59.76;100496.66;5051427;28;20025;-56
2021/12/09 04:06:51;;;;;;;10.32;4.57;;;;;;;-6.16;59.44;100491.44;5050865;28;20071;-58
2021/12/09 04:09:19;;;;;;;11.27;5.25;;;;;;;-6.08;58.87;100494.88;5050471;28;20529;-51
2021/12/09 04:11:45;;;;;;;15.07;6.47;;;;;;;-6.55;58.91;100448.03;5050825;28;20041;-55
2021/12/09 04:14:11;;;;;;;13.75;5.90;;;;;;;-6.39;59.56;100500.13;5051090;28;20060;-53
2021/12/09 04:16:37;;;;;;;11.48;5.53;;;;;;;-6.41;59.66;100500.13;5050606;28;20025;-58
2021/12/09 04:19:04;;;;;;;14.15;6.18;;;;;;;-6.45;60.07;100502.75;5050341;28;20025;-55
2021/12/09 04:21:30;;;;;;;14.05;5.28;;;;;;;-6.43;60.01;100483.63;5050971;28;20029;-57
2021/12/09 04:23:56;;;;;;;13.25;5.65;;;;;;;-6.40;60.06;100480.16;5050918;28;20112;-55
2021/12/09 04:26:21;;;;;;;10.70;5.38;;;;;;;-6.30;59.95;100471.44;5050351;28;20045;-55
2021/12/09 04:28:47;;;;;;;8.80;4.70;;;;;;;-6.16;59.07;100499.25;5049859;28;20055;-52
2021/12/09 04:31:15;;;;;;;13.27;5.90;;;;;;;-6.13;59.37;100483.59;5050426;28;20048;-55
2021/12/09 04:33:42;;;;;;;12.73;5.35;;;;;;;-6.14;59.42;100489.69;5049357;28;20135;-50
2021/12/09 04:36:08;;;;;;;12.95;5.05;;;;;;;-6.09;59.43;100493.16;5050711;28;20033;-50
2021/12/09 04:38:34;;;;;;;11.23;5.85;;;;;;;-6.33;59.34;100453.22;5054263;28;20103;-56
2021/12/09 04:40:59;;;;;;;16.38;6.00;;;;;;;-6.01;59.10;100494.03;5054478;28;20125;-57
2021/12/09 04:43:25;;;;;;;12.25;5.85;;;;;;;-6.11;59.78;100500.13;5054519;28;20029;-56
2021/12/09 04:45:50;;;;;;;10.82;5.43;;;;;;;-6.02;59.36;100496.63;5054106;28;20397;-56
2021/12/09 04:48:16;;;;;;;10.50;5.15;;;;;;;-6.07;59.06;100494.03;5053709;28;20177;-57
2021/12/09 04:50:43;;;;;;;13.10;5.75;;;;;;;-6.12;59.15;100498.38;5054363;28;20437;-58
2021/12/09 04:53:09;;;;;;;10.95;4.93;;;;;;;-6.11;59.53;100498.38;5054358;28;20397;-57
2021/12/09 04:55:35;;;;;;;11.40;5.68;;;;;;;-6.13;59.32;100499.25;5054250;28;20060;-57
2021/12/09 04:58:01;;;;;;;9.88;4.25;;;;;;;-6.03;59.69;100505.31;5054042;28;20066;-56
2021/12/09 05:00:29;;;;;;;12.02;5.85;;;;;;;-6.01;59.29;100508.78;5054074;28;20515;-55
2021/12/09 05:03:07;;;;;;;11.23;4.95;;;;;;;-6.06;59.61;100507.06;5054139;28;20481;-55
2021/12/09 05:05:39;;;;;;;11.57;5.65;;;;;;;-6.05;59.33;100505.31;5054105;28;20512;-54
2021/12/09 05:08:07;;;;;;;13.30;5.35;;;;;;;-6.06;59.48;100501.84;5053236;28;20542;-53
2021/12/09 05:10:49;;;;;;;11.80;5.35;;;;;;;-5.99;59.54;100502.69;5054464;28;20362;-53
2021/12/09 05:13:14;;;;;;;12.60;5.00;;;;;;;-5.88;59.01;100502.66;5053837;28;20033;-56
2021/12/09 05:15:40;;;;;;;11.13;5.38;;;;;;;-6.03;59.29;100466.22;5053216;28;20036;-54
2021/12/09 05:18:05;;;;;;;11.50;4.63;;;;;;;-5.76;59.27;100493.94;5053249;28;20029;-53
2021/12/09 05:20:31;;;;;;;10.90;5.18;;;;;;;-5.89;59.21;100502.66;5053636;28;20029;-51
2021/12/09 05:22:56;;;;;;;12.68;5.95;;;;;;;-5.95;59.46;100503.53;5053369;28;20524;-48
2021/12/09 05:25:22;;;;;;;13.45;5.38;;;;;;;-5.93;59.44;100515.72;5053436;28;20049;-58
2021/12/09 05:27:49;;;;;;;9.52;4.75;;;;;;;-5.87;58.93;100496.59;5053004;28;20099;-54
2021/12/09 05:30:14;;;;;;;11.10;4.95;;;;;;;-5.86;59.10;100507.84;5053592;28;20036;-55
2021/12/09 05:32:40;;;;;;;10.52;5.20;;;;;;;-5.64;58.05;100501.72;5053162;28;20465;-52
2021/12/09 05:35:06;;;;;;;10.48;5.53;;;;;;;-5.79;58.59;100509.56;5053101;28;20419;-54
2021/12/09 05:37:32;;;;;;;12.18;5.57;;;;;;;-5.76;58.93;100509.59;5053841;28;20057;-52
2021/12/09 05:39:59;;;;;;;15.70;6.25;;;;;;;-6.09;59.32;100477.50;5053064;28;20548;-54
2021/12/09 05:42:25;;;;;;;11.27;5.28;;;;;;;-5.97;59.16;100508.75;5052914;28;20540;-56
2021/12/09 05:44:51;;;;;;;11.25;4.85;;;;;;;-5.92;59.38;100509.63;5053303;28;20036;-52
2021/12/09 05:47:16;;;;;;;9.40;4.53;;;;;;;-5.73;58.78;100517.41;5051878;28;20029;-55
2021/12/09 05:49:46;;;;;;;11.18;5.10;;;;;;;-5.91;59.32;100485.28;5052933;28;20036;-55
2021/12/09 05:52:12;;;;;;;14.13;5.35;;;;;;;-5.74;59.10;100522.63;5053368;28;20033;-56
2021/12/09 05:54:39;;;;;;;10.82;5.13;;;;;;;-5.92;59.27;100488.75;5052762;28;20382;-54
2021/12/09 05:57:04;;;;;;;11.27;5.28;;;;;;;-5.66;59.38;100534.78;5053014;28;20033;-56
2021/12/09 05:59:30;;;;;;;10.05;4.82;;;;;;;-5.58;59.30;100518.22;5053083;28;20527;-53
2021/12/09 06:01:57;;;;;;;13.57;5.75;;;;;;;-5.47;58.90;100530.34;5044030;28;20694;-50
2021/12/09 06:04:23;;;;;;;11.90;5.65;;;;;;;-5.43;58.67;100531.22;5042377;28;20121;-55
2021/12/09 06:06:50;;;;;;;12.13;5.32;;;;;;;-5.47;58.90;100532.97;5040159;28;20029;-55
2021/12/09 06:09:16;;;;;;;12.02;5.80;;;;;;;-5.40;58.49;100535.59;5041594;28;20029;-55
2021/12/09 06:11:46;;;;;;;20.52;6.50;;;;;;;-5.42;58.47;100524.28;5042201;28;20026;-57
2021/12/09 06:14:11;;;;;;;11.73;5.68;;;;;;;-5.37;58.40;100531.19;5040829;28;20064;-55
2021/12/09 06:16:37;;;;;;;11.73;5.38;;;;;;;-5.37;58.09;100536.41;5049911;28;20040;-55
2021/12/09 06:19:03;;;;;;;14.43;6.13;;;;;;;-5.37;57.97;100539.03;5052982;28;20453;-53
2021/12/09 06:21:29;;;;;;;14.55;5.18;;;;;;;-5.35;58.67;100552.94;5052400;28;20058;-50
2021/12/09 06:23:57;;;;;;;14.77;5.75;;;;;;;-5.36;58.22;100564.25;5051811;28;20033;-54
2021/12/09 06:26:22;;;;;;;8.95;5.00;;;;;;;-5.44;58.27;100557.31;5052522;28;20095;-53
2021/12/09 06:28:48;;;;;;;10.18;4.90;;;;;;;-5.40;58.23;100578.19;5052605;28;20429;-54
2021/12/09 06:31:14;;;;;;;14.57;5.57;;;;;;;-5.36;58.06;100574.69;5052205;28;20025;-55
2021/12/09 06:33:40;;;;;;;17.77;5.57;;;;;;;-5.37;58.05;100574.72;5050772;28;20035;-53
2021/12/09 06:36:06;;;;;;;15.40;5.32;;;;;;;-5.44;58.24;100578.19;5051373;28;20458;-53
2021/12/09 06:38:32;;;;;;;18.92;6.45;;;;;;;-5.38;57.88;100578.22;5052112;28;20450;-54
2021/12/09 06:40:58;;;;;;;10.88;5.97;;;;;;;-5.50;58.19;100571.28;5051569;28;20111;-56
2021/12/09 06:43:25;;;;;;;10.43;5.40;;;;;;;-5.54;58.50;100572.16;5050558;28;20059;-55
2021/12/09 06:45:53;;;;;;;10.45;5.57;;;;;;;-5.51;58.44;100577.38;5051437;28;20393;-56
2021/12/09 06:48:19;;;;;;;12.77;5.80;;;;;;;-5.49;58.91;100567.78;5048433;28;20060;-58
2021/12/09 06:50:45;;;;;;;12.98;5.55;;;;;;;-5.40;58.71;100586.03;5052407;28;20029;-57
2021/12/09 06:53:12;;;;;;;12.43;6.38;;;;;;;-5.54;58.49;100549.53;5051713;28;20080;-57
2021/12/09 06:55:38;;;;;;;13.95;6.32;;;;;;;-5.30;57.91;100586.03;5052285;28;20059;-54
2021/12/09 06:58:05;;;;;;;11.00;5.68;;;;;;;-5.26;57.37;100598.19;5052441;28;20057;-55
2021/12/09 07:00:32;;;;;;;14.07;6.18;;;;;;;-5.28;57.70;100594.72;5052042;28;20450;-53
2021/12/09 07:02:57;;;;;;;11.80;5.53;;;;;;;-5.24;57.81;100593.81;5051590;28;20032;-60
2021/12/09 07:05:25;;;;;;;11.10;5.32;;;;;;;-5.20;57.96;100590.31;5051854;28;20389;-60
2021/12/09 07:07:51;;;;;;;12.60;5.72;;;;;;;-5.14;57.00;100607.72;5051961;28;20357;-56
2021/12/09 07:10:17;;;;;;;12.50;5.10;;;;;;;-5.09;56.62;100606.81;5051327;28;20033;-58
2021/12/09 07:12:43;;;;;;;14.40;5.78;;;;;;;-5.10;56.48;100599.00;5051546;28;20108;-55
2021/12/09 07:15:12;;;;;;;13.18;5.60;;;;;;;-5.07;56.70;100599.84;5051679;28;20465;-56
2021/12/09 07:17:38;;;;;;;12.70;5.30;;;;;;;-5.06;56.35;100599.00;5051234;28;20540;-54
2021/12/09 07:20:07;;;;;;;14.68;5.47;;;;;;;-5.09;56.44;100596.38;5051600;28;20075;-57
2021/12/09 07:22:33;;;;;;;11.75;5.70;;;;;;;-5.16;56.29;100605.09;5051389;28;20028;-56
2021/12/09 07:24:58;;;;;;;10.25;5.75;;;;;;;-5.18;56.44;100606.84;5051195;28;20098;-56
2021/12/09 07:27:24;;;;;;;13.30;5.65;;;;;;;-5.16;56.45;100605.09;5051441;28;20106;-57
2021/12/09 07:29:51;;;;;;;13.60;6.38;;;;;;;-5.25;56.13;100590.34;5050978;28;20370;-56
2021/12/09 07:32:17;;;;;;;12.65;6.00;;;;;;;-5.18;55.71;100609.47;5051470;28;20033;-58
2021/12/09 07:34:42;;;;;;;17.88;6.57;;;;;;;-5.21;55.67;100612.09;5050968;28;20040;-53
2021/12/09 07:37:08;;;;;;;14.77;6.10;;;;;;;-5.19;55.52;100620.78;5050825;28;20385;-52
2021/12/09 07:39:34;;;;;;;21.00;6.47;;;;;;;-5.26;55.43;100619.06;5050971;28;20033;-54
2021/12/09 07:42:01;;;;;;;16.23;6.25;;;;;;;-5.46;55.53;100622.59;5050768;28;20427;-56
2021/12/09 07:44:28;;;;;;;17.08;6.15;;;;;;;-5.75;56.11;100613.06;5050831;28;20039;-55
2021/12/09 07:46:55;;;;;;;13.88;6.40;;;;;;;-5.92;56.58;100619.16;5051122;28;20389;-53
2021/12/09 07:49:21;;;;;;;18.38;6.82;;;;;;;-6.11;57.05;100627.84;5049674;28;20025;-56
2021/12/09 07:51:48;;;;;;;14.35;6.65;;;;;;;-6.29;57.37;100615.69;5050652;28;20033;-61
2021/12/09 07:54:13;;;;;;;17.05;6.82;;;;;;;-6.70;57.79;100566.09;5058368;28;20483;-56
2021/12/09 07:56:39;;;;;;;15.05;6.85;;;;;;;-6.36;57.97;100628.69;5057533;28;20041;-56
2021/12/09 07:59:05;;;;;;;15.05;6.80;;;;;;;-6.28;57.48;100640.88;5048972;28;20035;-56
2021/12/09 08:01:30;;;;;;;14.55;6.78;;;;;;;-6.21;57.54;100635.69;5049672;28;20107;-52
2021/12/09 08:03:56;;;;;;;18.60;6.47;;;;;;;-6.15;57.18;100626.13;5040914;28;20356;-55
2021/12/09 08:06:22;;;;;;;19.80;6.60;;;;;;;-5.97;57.10;100638.25;5029550;28;20111;-54
2021/12/09 08:08:48;;;;;;;18.55;6.63;;;;;;;-5.88;56.68;100646.09;5040348;28;20389;-56
2021/12/09 08:11:14;;;;;;;17.10;7.35;;;;;;;-6.03;56.81;100607.84;5050147;28;20081;-54
2021/12/09 08:13:39;;;;;;;19.60;7.05;;;;;;;-5.88;56.08;100608.72;5035791;28;20437;-55
2021/12/09 08:16:05;;;;;;;13.38;6.95;;;;;;;-5.65;56.02;100642.63;5034334;28;20047;-60
2021/12/09 08:18:32;;;;;;;20.73;7.07;;;;;;;-5.66;56.01;100630.44;5033870;28;20390;-57
2021/12/09 08:21:01;;;;;;;19.17;6.22;;;;;;;-5.72;55.69;100613.06;5032634;28;20030;-59
2021/12/09 08:23:27;;;;;;;14.45;6.65;;;;;;;-5.45;55.48;100645.19;5032675;28;20029;-57
2021/12/09 08:25:54;;;;;;;15.80;6.15;;;;;;;-5.39;55.79;100646.94;5052683;28;20132;-58
2021/12/09 08:28:20;;;;;;;15.80;7.32;;;;;;;-5.40;55.18;100638.22;5053315;28;20079;-57
2021/12/09 08:30:50;;;;;;;18.85;6.97;;;;;;;-5.40;55.43;100647.81;5054104;28;20025;-54
2021/12/09 08:33:16;;;;;;;15.05;6.82;;;;;;;-5.41;55.71;100652.16;5053976;28;20040;-56
2021/12/09 08:35:42;;;;;;;13.00;6.40;;;;;;;-5.45;55.21;100650.41;5053526;28;20033;-53
2021/12/09 08:38:08;;;;;;;18.05;6.97;;;;;;;-5.54;55.05;100637.41;5053991;28;20032;-56
2021/12/09 08:40:35;;;;;;;15.38;6.97;;;;;;;-5.43;55.56;100656.50;5053916;28;20024;-56
2021/12/09 08:43:00;;;;;;;14.07;6.78;;;;;;;-5.38;55.08;100659.13;5038947;28;20033;-58
2021/12/09 08:45:26;;;;;;;16.17;6.90;;;;;;;-5.43;54.72;100658.22;5048455;28;20318;-59
2021/12/09 08:47:52;;;;;;;13.63;7.35;;;;;;;-5.49;55.09;100652.16;5033708;28;20041;-56
2021/12/09 08:50:21;;;;;;;14.40;7.28;;;;;;;-5.50;54.59;100658.25;5033714;28;20394;-60
2021/12/09 08:52:48;;;;;;;15.02;6.95;;;;;;;-5.48;54.85;100655.66;5034126;28;20068;-61
2021/12/09 08:55:15;;;;;;;15.52;7.15;;;;;;;-5.57;54.68;100650.41;5033953;28;20390;-58
2021/12/09 08:57:40;;;;;;;16.13;7.25;;;;;;;-5.59;54.53;100652.16;5033825;28;20037;-56
2021/12/09 09:00:11;;;;;;;13.88;7.00;;;;;;;-5.68;54.63;100663.47;5033879;28;20051;-59
2021/12/09 09:02:40;;;;;;;14.20;7.28;;;;;;;-5.88;54.99;100637.41;5037065;28;20577;-58
2021/12/09 09:05:10;;;;;;;15.15;6.90;;;;;;;-5.87;54.62;100660.00;5044449;28;20038;-55
2021/12/09 09:07:43;;;;;;;16.90;7.20;;;;;;;-5.98;54.83;100642.63;5032277;28;20036;-58
2021/12/09 09:10:11;;;;;;;17.33;7.88;;;;;;;-5.97;55.13;100656.50;5045043;28;20465;-62
2021/12/09 09:12:37;;;;;;;17.50;6.82;;;;;;;-6.03;55.53;100657.41;5053410;28;20357;-61
2021/12/09 09:15:08;;;;;;;17.85;7.95;;;;;;;-6.07;55.44;100663.47;5053557;28;20407;-63
2021/12/09 09:17:35;;;;;;;15.13;7.47;;;;;;;-6.22;55.67;100635.66;5052910;28;20033;-57
2021/12/09 09:20:01;;;;;;;19.30;8.18;;;;;;;-6.20;55.33;100653.06;5044671;28;20465;-61
2021/12/09 09:22:26;;;;;;;16.02;7.43;;;;;;;-6.23;55.60;100652.16;5032110;28;20536;-57
2021/12/09 09:24:52;;;;;;;16.50;7.57;;;;;;;-6.30;55.55;100656.50;5033201;28;20184;-62
2021/12/09 09:27:18;;;;;;;16.90;7.13;;;;;;;-6.25;55.35;100660.00;5033307;28;20454;-57
2021/12/09 09:29:44;;;;;;;17.73;8.25;;;;;;;-6.33;55.58;100659.09;5031736;28;20457;-52
2021/12/09 09:32:13;;;;;;;19.42;8.25;;;;;;;-6.39;55.85;100666.91;5033058;28;20029;-52
2021/12/09 09:34:39;;;;;;;18.83;7.85;;;;;;;-6.40;55.73;100662.56;5033386;28;20057;-55
2021/12/09 09:37:06;;;;;;;16.92;8.02;;;;;;;-6.47;55.68;100653.00;5031894;28;20026;-50
2021/12/09 09:39:33;;;;;;;17.90;8.25;;;;;;;-6.42;55.72;100653.88;5032877;28;20033;-54
2021/12/09 09:44:49;;;;;;;19.58;7.40;;;;;;;-6.45;55.64;100648.66;5033212;28;20022;-52
2021/12/09 09:47:17;;;;;;;20.98;7.65;;;;;;;-6.50;55.83;100646.03;5032964;28;20478;-65
2021/12/09 09:49:43;;;;;;;8.85;3.75;;;;;;;-6.47;56.78;100635.63;5033167;28;20125;-55
2021/12/09 09:52:10;;;;;;;21.10;8.02;;;;;;;-6.47;56.08;100650.38;5033119;28;20112;-62
2021/12/09 09:54:37;;;;;;;17.08;7.55;;;;;;;-6.66;55.98;100642.50;5032389;28;20029;-62
2021/12/09 09:57:03;;;;;;;19.85;8.35;;;;;;;-6.62;56.46;100659.88;5032478;28;20087;-59
2021/12/09 09:59:29;;;;;;;15.38;7.20;;;;;;;-6.56;56.32;100651.22;5032824;28;20033;-55
2021/12/09 10:01:55;;;;;;;18.52;7.50;;;;;;;-6.52;56.13;100645.16;5047842;28;20453;-64
2021/12/09 10:04:43;;;;;;;8.48;3.63;;;;;;;-6.34;56.27;100644.31;5052420;28;20029;-60
2021/12/09 10:07:10;;;;;;;19.83;7.47;;;;;;;-6.61;56.01;100609.53;5051721;28;20436;-57
2021/12/09 10:09:36;;;;;;;21.80;7.80;;;;;;;-6.70;55.96;100591.28;5052715;28;20072;-60
2021/12/09 10:12:01;;;;;;;16.63;8.02;;;;;;;-6.68;55.80;100594.75;5052527;28;20056;-58
2021/12/09 10:14:32;;;;;;;23.08;8.70;;;;;;;-6.25;56.01;100638.25;5052179;28;20041;-62
2021/12/09 10:17:08;;;;;;;18.45;7.93;;;;;;;-6.28;55.94;100638.25;5052990;28;20521;-61
2021/12/09 10:19:46;;;;;;;14.48;7.70;;;;;;;-6.25;55.89;100626.13;5052635;28;20461;-59
2021/12/09 10:22:20;;;;;;;18.88;7.32;;;;;;;-6.18;55.69;100637.41;5051090;28;20496;-55
2021/12/09 10:24:49;;;;;;;16.50;7.97;;;;;;;-6.09;55.69;100641.75;5052213;28;20131;-56
2021/12/09 10:27:30;;;;;;;17.13;7.95;;;;;;;-6.00;55.40;100643.47;5052570;28;20302;-61
2021/12/09 10:30:01;;;;;;;14.65;7.78;;;;;;;-5.88;54.86;100634.78;5052261;28;20025;-59
2021/12/09 10:32:33;;;;;;;18.35;8.18;;;;;;;-5.91;55.32;100641.75;5051832;28;20025;-56
2021/12/09 10:35:09;;;;;;;15.45;7.65;;;;;;;-5.91;54.95;100635.66;5050328;28;20111;-58
2021/12/09 10:37:36;;;;;;;19.23;7.90;;;;;;;-5.92;55.23;100650.44;5039660;28;20485;-59
2021/12/09 10:40:18;;;;;;;16.67;8.20;;;;;;;-5.83;55.36;100659.13;5036536;28;20449;-57
2021/12/09 10:42:48;;;;;;;19.33;8.82;;;;;;;-5.82;55.04;100653.91;5040826;28;20110;-53
2021/12/09 10:45:30;;;;;;;21.30;8.55;;;;;;;-5.79;54.90;100653.03;5029809;28;20095;-57
2021/12/09 10:48:03;;;;;;;18.77;8.00;;;;;;;-5.80;55.37;100665.22;5045352;28;20669;-55
2021/12/09 10:50:42;;;;;;;18.33;8.27;;;;;;;-5.80;54.93;100669.56;5049957;28;20040;-63
2021/12/09 10:56:00;;;;;;;15.23;7.47;;;;;;;-6.03;55.21;100623.50;5047989;28;20039;-59
2021/12/09 10:58:28;;;;;;;15.55;6.25;;;;;;;-5.50;54.72;100686.09;5050819;28;20056;-60
2021/12/09 11:01:00;;;;;;;16.90;7.90;;;;;;;-5.69;54.83;100675.66;5051032;28;20409;-53
2021/12/09 11:03:35;;;;;;;17.23;7.38;;;;;;;-5.85;55.38;100672.19;5049774;28;20033;-59
2021/12/09 11:06:02;;;;;;;19.58;8.57;;;;;;;-5.74;55.56;100677.41;5051077;28;20454;-56
2021/12/09 11:08:28;;;;;;;17.20;7.72;;;;;;;-5.79;55.24;100673.91;5049411;28;20037;-57
2021/12/09 11:11:14;;;;;;;19.45;8.98;;;;;;;-5.77;55.31;100685.22;5051106;28;20048;-55
2021/12/09 11:13:53;;;;;;;16.70;8.10;;;;;;;-5.82;55.40;100679.13;5050456;28;20116;-58
2021/12/09 11:16:26;;;;;;;17.65;8.07;;;;;;;-5.83;55.18;100680.00;5049594;28;20071;-64
2021/12/09 11:18:57;;;;;;;20.15;8.55;;;;;;;-5.80;55.05;100683.47;5050836;28;20028;-59
2021/12/09 11:21:29;;;;;;;23.08;8.85;;;;;;;-5.88;55.36;100693.03;5051040;28;20419;-54
2021/12/09 11:24:10;;;;;;;22.23;9.48;;;;;;;-5.91;55.64;100682.59;5049738;28;20056;-57